Time;durP1;ratioP1;P1;durP2;ratioP2;P2;SDS_P1;SDS_P2;PMS_P1;PMS_P2;Temp;Humidity;BMP_temperature;BMP_pressure;BME280_temperature;BME280_humidity;BME280_pressure;Samples;Min_cycle;Max_cycle;Signal;HPM_P1;HPM_P2
2023/01/28 00:00:15;;;;;;;7.33;3.50;;;;;;;-2.53;100.00;101801.47;5044764;28;20746;-75
2023/01/28 00:02:43;;;;;;;7.00;4.20;;;;;;;-2.56;100.00;101801.31;5050574;28;20293;-74
2023/01/28 00:05:11;;;;;;;7.73;3.27;;;;;;;-2.60;100.00;101791.75;5033727;28;20274;-74
2023/01/28 00:07:37;;;;;;;7.53;4.03;;;;;;;-2.64;100.00;101794.97;5053663;28;20287;-74
2023/01/28 00:10:04;;;;;;;5.70;3.10;;;;;;;-2.67;100.00;101791.47;5036775;28;20195;-74
2023/01/28 00:12:31;;;;;;;5.73;3.13;;;;;;;-2.67;100.00;101790.63;5054777;28;20195;-74
2023/01/28 00:14:57;;;;;;;4.50;3.13;;;;;;;-2.66;100.00;101792.34;5048531;28;20227;-74
2023/01/28 00:17:26;;;;;;;8.00;3.93;;;;;;;-2.61;100.00;101796.00;5047070;28;20195;-74
2023/01/28 00:19:54;;;;;;;11.50;3.87;;;;;;;-2.59;100.00;101793.50;5056737;28;20195;-74
2023/01/28 00:22:22;;;;;;;6.50;3.93;;;;;;;-2.57;100.00;101790.25;5044236;28;20224;-74
2023/01/28 00:24:48;;;;;;;10.13;4.13;;;;;;;-2.52;100.00;101798.09;5050740;28;20211;-74
2023/01/28 00:27:14;;;;;;;6.23;3.73;;;;;;;-2.50;100.00;101805.03;5048613;28;20206;-75
2023/01/28 00:29:41;;;;;;;11.03;5.40;;;;;;;-2.47;100.00;101801.75;5037865;28;20232;-74
2023/01/28 00:32:07;;;;;;;9.07;5.60;;;;;;;-2.43;100.00;101798.50;5034070;28;20203;-74
2023/01/28 00:34:34;;;;;;;12.20;4.97;;;;;;;-2.41;100.00;101804.59;5045039;28;20596;-74
2023/01/28 00:37:02;;;;;;;6.80;3.77;;;;;;;-2.41;100.00;101799.47;5043118;28;20192;-74
2023/01/28 00:39:30;;;;;;;8.73;3.97;;;;;;;-2.42;100.00;101807.06;5052931;28;20183;-74
2023/01/28 00:41:57;;;;;;;8.00;3.80;;;;;;;-2.44;100.00;101807.00;5052777;28;20246;-74
2023/01/28 00:44:24;;;;;;;5.40;3.47;;;;;;;-2.45;100.00;101810.34;5041910;28;20723;-74
2023/01/28 00:46:50;;;;;;;7.13;3.67;;;;;;;-2.48;100.00;101808.53;5028369;28;20199;-74
2023/01/28 00:49:17;;;;;;;6.73;3.67;;;;;;;-2.47;100.00;101814.50;5034910;28;20205;-74
2023/01/28 00:51:43;;;;;;;7.27;4.13;;;;;;;-2.49;100.00;101809.31;5037955;28;20203;-74
2023/01/28 00:54:13;;;;;;;8.17;3.57;;;;;;;-2.51;100.00;101815.19;5043358;28;20239;-74
2023/01/28 00:56:39;;;;;;;7.17;3.67;;;;;;;-2.58;100.00;101814.03;5046484;28;20278;-74
2023/01/28 00:59:05;;;;;;;6.60;4.03;;;;;;;-2.58;100.00;101820.81;5034547;28;20199;-74
2023/01/28 01:01:32;;;;;;;6.23;3.63;;;;;;;-2.58;100.00;101823.38;5047634;28;20207;-74
2023/01/28 01:04:02;;;;;;;6.93;4.30;;;;;;;-2.61;100.00;101820.66;5057163;28;20252;-74
2023/01/28 01:06:31;;;;;;;7.27;4.37;;;;;;;-2.67;100.00;101827.22;5059346;28;20203;-74
2023/01/28 01:08:59;;;;;;;8.10;4.37;;;;;;;-2.69;100.00;101822.84;5041594;28;20204;-74
2023/01/28 01:11:27;;;;;;;10.80;4.27;;;;;;;-2.75;100.00;101822.56;5046958;28;20191;-74
2023/01/28 01:13:55;;;;;;;8.00;4.40;;;;;;;-2.79;100.00;101820.69;5035952;28;20219;-74
2023/01/28 01:16:26;;;;;;;10.23;5.50;;;;;;;-2.84;100.00;101823.00;5051543;28;20694;-74
2023/01/28 01:18:53;;;;;;;9.77;5.07;;;;;;;-2.90;100.00;101826.16;5052942;28;20250;-74
2023/01/28 01:21:24;;;;;;;8.63;4.57;;;;;;;-2.93;100.00;101838.75;5026346;28;20206;-74
2023/01/28 01:23:51;;;;;;;7.90;4.33;;;;;;;-2.96;100.00;101830.06;5049795;28;20219;-74
2023/01/28 01:26:17;;;;;;;6.37;4.03;;;;;;;-3.00;100.00;101828.19;5038929;28;20198;-74
2023/01/28 01:28:45;;;;;;;7.83;4.63;;;;;;;-3.04;100.00;101827.16;5051468;28;20200;-74
2023/01/28 01:31:15;;;;;;;6.80;4.60;;;;;;;-3.09;100.00;101826.06;5038354;28;20261;-74
2023/01/28 01:33:43;;;;;;;6.57;3.97;;;;;;;-3.11;100.00;101823.44;5046998;28;20732;-74
2023/01/28 01:36:12;;;;;;;9.17;4.23;;;;;;;-3.12;100.00;101828.44;5045670;28;20591;-74
2023/01/28 01:38:40;;;;;;;7.90;4.10;;;;;;;-3.16;100.00;101829.97;5046953;28;20683;-74
2023/01/28 01:41:09;;;;;;;7.43;3.67;;;;;;;-3.18;100.00;101835.78;5049479;28;20230;-74
2023/01/28 01:43:50;;;;;;;8.07;4.03;;;;;;;-3.20;100.00;101835.75;5047053;28;20227;-74
2023/01/28 01:46:21;;;;;;;9.13;3.77;;;;;;;-3.24;100.00;101836.38;5041267;28;20213;-74
2023/01/28 01:48:48;;;;;;;5.50;3.60;;;;;;;-3.29;100.00;101830.16;5040015;28;20204;-74
2023/01/28 01:51:19;;;;;;;10.23;4.40;;;;;;;-3.32;100.00;101827.47;5050869;28;20206;-74
2023/01/28 01:53:49;;;;;;;7.50;3.90;;;;;;;-3.35;100.00;101829.88;5034799;28;20186;-74
2023/01/28 01:56:20;;;;;;;7.17;4.10;;;;;;;-3.39;100.00;101822.84;5044477;28;20638;-74
2023/01/28 01:58:50;;;;;;;7.17;3.73;;;;;;;-3.42;100.00;101828.69;5031663;28;20286;-74
2023/01/28 02:01:20;;;;;;;8.03;3.97;;;;;;;-3.46;100.00;101830.22;5031547;28;20278;-74
2023/01/28 02:03:53;;;;;;;8.20;4.53;;;;;;;-3.50;100.00;101829.97;5047316;28;20702;-74
2023/01/28 02:06:20;;;;;;;6.30;3.60;;;;;;;-3.53;100.00;101828.16;5031863;28;20214;-74
2023/01/28 02:08:46;;;;;;;6.40;3.43;;;;;;;-3.55;100.00;101836.50;5030377;28;20207;-74
2023/01/28 02:11:16;;;;;;;11.17;4.07;;;;;;;-3.55;100.00;101833.97;5036169;28;20195;-74
2023/01/28 02:13:46;;;;;;;6.97;3.77;;;;;;;-3.58;100.00;101834.69;5035641;28;20282;-74
2023/01/28 02:16:14;;;;;;;6.33;3.97;;;;;;;-3.57;100.00;101833.00;5026213;28;20497;-74
2023/01/28 02:18:41;;;;;;;8.23;4.47;;;;;;;-3.57;100.00;101836.47;5039141;28;20199;-74
2023/01/28 02:21:30;;;;;;;8.90;4.00;;;;;;;-3.56;100.00;101840.75;5032048;28;20277;-74
2023/01/28 02:24:17;;;;;;;7.00;4.00;;;;;;;-3.53;100.00;101845.13;5048894;28;20276;-74
2023/01/28 02:27:01;;;;;;;8.83;4.17;;;;;;;-3.52;100.00;101846.88;5044958;28;20195;-74
2023/01/28 02:29:37;;;;;;;5.67;3.47;;;;;;;-3.48;100.00;101846.25;5033879;28;20529;-74
2023/01/28 02:32:09;;;;;;;7.90;4.80;;;;;;;-3.48;100.00;101838.59;5039998;28;20222;-74
2023/01/28 02:34:43;;;;;;;6.93;4.07;;;;;;;-3.50;100.00;101842.72;5043035;28;20211;-74
2023/01/28 02:37:14;;;;;;;5.43;3.50;;;;;;;-3.51;100.00;101841.84;5047063;28;20203;-74
2023/01/28 02:39:45;;;;;;;7.57;4.10;;;;;;;-3.50;100.00;101852.91;5030581;28;20199;-74
2023/01/28 02:42:17;;;;;;;7.63;4.03;;;;;;;-3.52;100.00;101851.97;5038973;28;20239;-74
2023/01/28 02:44:45;;;;;;;5.50;4.03;;;;;;;-3.53;100.00;101850.22;5037296;28;20237;-74
2023/01/28 02:50:04;;;;;;;11.77;4.50;;;;;;;-3.58;100.00;101852.53;5014264;28;20576;-74
2023/01/28 02:55:38;;;;;;;7.70;4.43;;;;;;;-3.63;100.00;101852.28;5047605;28;20227;-74
2023/01/28 02:58:16;;;;;;;7.13;4.80;;;;;;;-3.67;100.00;101847.84;5039722;28;20750;-74
2023/01/28 03:00:50;;;;;;;7.13;3.67;;;;;;;-3.71;100.00;101850.16;5049255;28;20663;-74
2023/01/28 03:03:21;;;;;;;8.47;4.40;;;;;;;-3.74;100.00;101858.53;5023333;28;20529;-74
2023/01/28 03:06:05;;;;;;;6.03;4.07;;;;;;;-3.73;100.00;101859.38;5029220;28;20529;-74
2023/01/28 03:36:50;;;;;;;4.93;3.50;;;;;;;-4.30;100.00;101857.28;5027265;28;20462;-75
2023/01/28 03:39:35;;;;;;;6.33;4.20;;;;;;;-4.33;100.00;101862.19;5027208;28;20203;-75
2023/01/28 03:42:05;;;;;;;7.37;4.37;;;;;;;-4.38;100.00;101863.59;5038116;28;20535;-75
2023/01/28 03:47:17;;;;;;;9.73;4.87;;;;;;;-4.43;100.00;101870.16;5042645;28;20541;-75
2023/01/28 03:49:48;;;;;;;7.43;3.97;;;;;;;-4.47;100.00;101869.06;5047478;28;20988;-75
2023/01/28 03:52:18;;;;;;;7.43;4.43;;;;;;;-4.50;100.00;101866.38;5025943;28;20465;-74
2023/01/28 03:54:46;;;;;;;10.77;4.83;;;;;;;-4.49;100.00;101879.97;5034388;28;20492;-75
2023/01/28 03:57:14;;;;;;;10.17;5.10;;;;;;;-4.51;100.00;101877.34;5039130;28;20544;-75
2023/01/28 03:59:41;;;;;;;7.43;4.07;;;;;;;-4.51;100.00;101892.63;5051873;28;20928;-75
2023/01/28 04:02:09;;;;;;;9.37;4.60;;;;;;;-4.51;100.00;101889.22;5033159;28;20466;-75
2023/01/28 04:04:36;;;;;;;8.53;4.50;;;;;;;-4.49;100.00;101887.63;5031989;28;20476;-75
2023/01/28 04:07:07;;;;;;;8.43;3.80;;;;;;;-4.50;100.00;101891.84;5032908;28;20603;-75
2023/01/28 04:09:52;;;;;;;6.73;3.73;;;;;;;-4.46;100.00;101890.34;5048610;28;20445;-75
2023/01/28 04:12:41;;;;;;;8.23;4.10;;;;;;;-4.44;100.00;101891.31;5047976;28;20457;-75
2023/01/28 04:15:14;;;;;;;8.77;4.67;;;;;;;-4.40;100.00;101891.56;5027934;28;20474;-75
2023/01/28 04:17:49;;;;;;;10.27;4.40;;;;;;;-4.38;100.00;101887.44;5024300;28;20514;-75
2023/01/28 04:20:23;;;;;;;8.20;4.53;;;;;;;-4.37;100.00;101894.25;5029723;28;21088;-75
2023/01/28 04:22:51;;;;;;;7.90;4.47;;;;;;;-4.36;100.00;101895.16;5033993;28;20559;-74
2023/01/28 04:25:19;;;;;;;8.63;4.03;;;;;;;-4.35;100.00;101893.47;5047499;28;20995;-74
2023/01/28 04:27:46;;;;;;;13.83;4.60;;;;;;;-4.33;100.00;101896.97;5039277;28;20488;-74
2023/01/28 04:30:20;;;;;;;7.73;3.93;;;;;;;-4.32;100.00;101897.06;5039715;28;20526;-74
2023/01/28 04:32:56;;;;;;;6.87;4.90;;;;;;;-4.29;100.00;101888.69;5034022;28;20868;-74
2023/01/28 04:35:31;;;;;;;6.93;3.83;;;;;;;-4.27;100.00;101892.22;5029496;28;20476;-74
2023/01/28 04:38:08;;;;;;;7.53;4.40;;;;;;;-4.26;100.00;101899.06;5048887;28;20453;-74
2023/01/28 04:40:54;;;;;;;7.63;4.03;;;;;;;-4.26;100.00;101899.94;5053468;28;20448;-74
2023/01/28 04:43:26;;;;;;;10.57;4.17;;;;;;;-4.25;100.00;101901.69;5034633;28;20219;-74
2023/01/28 04:46:18;;;;;;;7.50;4.60;;;;;;;-4.20;100.00;101895.19;5054365;28;20835;-74
2023/01/28 04:48:55;;;;;;;10.37;4.57;;;;;;;-4.12;100.00;101899.81;5046568;28;20462;-74
2023/01/28 04:51:33;;;;;;;9.13;3.97;;;;;;;-4.10;100.00;101896.53;5033838;28;20977;-74
2023/01/28 04:54:33;;;;;;;9.50;4.50;;;;;;;-4.09;100.00;101900.00;5035853;28;20473;-74
2023/01/28 04:57:02;;;;;;;5.63;3.60;;;;;;;-4.11;100.00;101897.34;5033401;28;20462;-74
2023/01/28 04:59:30;;;;;;;6.37;4.47;;;;;;;-4.09;100.00;101890.66;5036006;28;20552;-74
2023/01/28 05:01:56;;;;;;;10.53;4.27;;;;;;;-4.04;100.00;101896.03;5039030;28;20557;-74
2023/01/28 05:04:23;;;;;;;4.80;3.77;;;;;;;-4.04;100.00;101894.34;5039469;28;21032;-74
2023/01/28 05:06:49;;;;;;;9.97;4.57;;;;;;;-4.00;100.00;101900.47;5053501;28;20900;-74
2023/01/28 05:09:19;;;;;;;5.70;3.97;;;;;;;-3.99;100.00;101897.16;5033437;28;20549;-74
2023/01/28 05:11:47;;;;;;;7.50;3.97;;;;;;;-3.96;100.00;101901.50;5039806;28;20456;-75
2023/01/28 05:14:14;;;;;;;9.47;4.80;;;;;;;-3.92;100.00;101911.06;5025906;28;21090;-74
2023/01/28 05:16:59;;;;;;;7.67;4.27;;;;;;;-3.86;100.00;101911.41;5052524;28;20452;-74
2023/01/28 05:19:25;;;;;;;8.40;4.50;;;;;;;-3.89;100.00;101909.56;5055263;28;20515;-74
2023/01/28 05:21:52;;;;;;;8.60;4.27;;;;;;;-3.85;100.00;101910.63;5040765;28;20257;-74
2023/01/28 05:24:27;;;;;;;8.73;4.33;;;;;;;-3.84;100.00;101915.78;5028876;28;20569;-74
2023/01/28 05:26:55;;;;;;;7.87;4.03;;;;;;;-3.81;100.00;101917.63;5034017;28;20446;-74
2023/01/28 05:29:21;;;;;;;5.53;3.70;;;;;;;-3.79;100.00;101926.22;5036838;28;20484;-74
2023/01/28 05:31:48;;;;;;;7.13;4.20;;;;;;;-3.76;100.00;101925.50;5031523;28;20195;-74
2023/01/28 05:34:15;;;;;;;5.10;3.77;;;;;;;-3.74;100.00;101924.81;5047161;28;20586;-74
2023/01/28 05:36:43;;;;;;;7.27;4.10;;;;;;;-3.70;100.00;101926.69;5051390;28;20286;-74
2023/01/28 05:39:25;;;;;;;6.97;4.53;;;;;;;-3.67;100.00;101931.09;5020647;28;20453;-74
2023/01/28 05:41:51;;;;;;;7.13;4.77;;;;;;;-3.67;100.00;101926.88;5048102;28;20908;-75
2023/01/28 05:44:19;;;;;;;8.13;4.80;;;;;;;-3.64;100.00;101931.25;5033458;28;20219;-74
2023/01/28 05:46:58;;;;;;;5.57;3.73;;;;;;;-3.63;100.00;101935.56;5032669;28;20241;-74
2023/01/28 05:49:45;;;;;;;9.60;3.80;;;;;;;-3.62;100.00;101933.09;5046971;28;20202;-75
2023/01/28 05:52:30;;;;;;;6.77;4.43;;;;;;;-3.59;100.00;101946.78;5046555;28;20210;-74
2023/01/28 05:54:57;;;;;;;7.27;4.17;;;;;;;-3.56;100.00;101947.81;5037908;28;20306;-74
2023/01/28 05:57:25;;;;;;;6.00;3.67;;;;;;;-3.54;100.00;101953.88;5025714;28;20467;-74
2023/01/28 05:59:52;;;;;;;6.87;4.43;;;;;;;-3.52;100.00;101953.97;5033885;28;20555;-75
2023/01/28 06:02:19;;;;;;;5.60;3.93;;;;;;;-3.52;100.00;101953.97;5037104;28;20770;-74
2023/01/28 06:04:46;;;;;;;4.83;3.63;;;;;;;-3.48;100.00;101961.88;5033186;28;20719;-75
2023/01/28 06:07:14;;;;;;;13.83;4.07;;;;;;;-3.45;100.00;101962.03;5029296;28;20237;-75
2023/01/28 06:09:42;;;;;;;6.47;2.90;;;;;;;-3.45;100.00;101967.13;5031782;28;20196;-78
2023/01/28 06:12:09;;;;;;;6.63;3.37;;;;;;;-3.41;100.00;101973.28;5032985;28;20598;-76
2023/01/28 06:14:54;;;;;;;6.50;4.10;;;;;;;-3.37;100.00;101974.31;5031620;28;20223;-75
2023/01/28 06:17:39;;;;;;;5.33;3.27;;;;;;;-3.38;100.00;101986.16;5046201;28;20349;-75
2023/01/28 06:20:09;;;;;;;3.90;2.63;;;;;;;-3.33;100.00;101989.84;5030240;28;20196;-75
2023/01/28 06:22:40;;;;;;;3.07;2.57;;;;;;;-3.30;100.00;101990.00;5025478;28;20270;-75
2023/01/28 06:25:08;;;;;;;5.83;2.50;;;;;;;-3.28;100.00;101990.94;5047139;28;20219;-75
2023/01/28 06:27:34;;;;;;;7.50;3.23;;;;;;;-3.26;100.00;101997.00;5033813;28;20537;-76
2023/01/28 06:30:03;;;;;;;8.73;3.30;;;;;;;-3.26;100.00;101999.56;5031101;28;20211;-76
2023/01/28 06:32:31;;;;;;;3.83;2.60;;;;;;;-3.25;100.00;101993.66;5056843;28;20230;-77
2023/01/28 06:34:57;;;;;;;3.83;2.67;;;;;;;-3.26;100.00;102002.09;5046521;28;20627;-75
2023/01/28 06:37:24;;;;;;;5.63;2.90;;;;;;;-3.27;100.00;101997.81;5046342;28;20207;-75
2023/01/28 06:39:50;;;;;;;6.37;2.77;;;;;;;-3.25;100.00;102001.31;5047857;28;20302;-75
2023/01/28 06:42:16;;;;;;;6.33;2.93;;;;;;;-3.22;100.00;102005.69;5062255;28;20629;-75
2023/01/28 06:44:43;;;;;;;7.27;2.80;;;;;;;-3.23;100.00;102006.50;5046444;28;20208;-75
2023/01/28 06:47:10;;;;;;;4.90;3.07;;;;;;;-3.24;100.00;101999.63;5025400;28;20686;-76
2023/01/28 06:49:37;;;;;;;4.33;2.40;;;;;;;-3.21;100.00;101989.59;5041037;28;20188;-75
2023/01/28 06:52:04;;;;;;;5.07;3.10;;;;;;;-3.22;100.00;101995.50;5023560;28;20286;-75
2023/01/28 06:54:30;;;;;;;4.17;3.03;;;;;;;-3.21;100.00;102002.38;5048219;28;20219;-75
2023/01/28 06:56:58;;;;;;;4.60;2.70;;;;;;;-3.21;100.00;102002.38;5031968;28;20195;-75
2023/01/28 06:59:25;;;;;;;4.10;2.93;;;;;;;-3.17;100.00;102006.81;5050047;28;20217;-75
2023/01/28 07:01:52;;;;;;;4.93;2.63;;;;;;;-3.16;100.00;102011.13;5047959;28;20730;-75
2023/01/28 07:04:19;;;;;;;2.93;2.50;;;;;;;-3.18;100.00;101999.06;5044948;28;20715;-75
2023/01/28 07:06:46;;;;;;;3.77;2.73;;;;;;;-3.14;100.00;102008.66;5059066;28;20207;-75
2023/01/28 07:09:12;;;;;;;5.20;2.80;;;;;;;-3.13;100.00;102012.94;5049098;28;20668;-75
2023/01/28 07:11:39;;;;;;;4.10;2.93;;;;;;;-3.11;100.00;101998.63;5043792;28;20199;-75
2023/01/28 07:14:05;;;;;;;7.03;2.53;;;;;;;-3.10;100.00;102008.00;5044193;28;20269;-75
2023/01/28 07:16:32;;;;;;;3.13;2.60;;;;;;;-3.09;100.00;102014.88;5048941;28;20205;-77
2023/01/28 07:18:58;;;;;;;3.70;2.37;;;;;;;-3.07;100.00;102018.38;5031073;28;20203;-75
2023/01/28 07:21:26;;;;;;;3.67;1.90;;;;;;;-3.03;100.00;102019.44;5034495;28;20191;-75
2023/01/28 07:23:53;;;;;;;4.53;2.70;;;;;;;-3.06;100.00;102020.13;5050738;28;20697;-75
2023/01/28 07:26:19;;;;;;;3.53;2.40;;;;;;;-3.03;100.00;102022.84;5050645;28;20850;-75
2023/01/28 07:28:46;;;;;;;2.43;2.10;;;;;;;-3.02;100.00;102018.63;4997351;28;20791;-75
2023/01/28 07:31:13;;;;;;;3.43;2.40;;;;;;;-3.03;100.00;102017.75;5009730;28;20200;-76
2023/01/28 07:33:39;;;;;;;3.03;1.90;;;;;;;-3.00;100.00;102017.91;5020368;28;20201;-75
2023/01/28 07:36:07;;;;;;;3.00;2.10;;;;;;;-3.00;100.00;102010.25;5007217;28;20191;-75
2023/01/28 07:38:35;;;;;;;4.83;2.10;;;;;;;-2.97;100.00;102015.53;5028488;28;20222;-75
2023/01/28 07:41:01;;;;;;;5.50;2.20;;;;;;;-2.94;100.00;102020.75;5024737;28;20204;-75
2023/01/28 07:43:27;;;;;;;4.23;1.90;;;;;;;-2.93;100.00;102009.75;5014549;28;20238;-75
2023/01/28 07:45:57;;;;;;;4.33;2.17;;;;;;;-2.91;100.00;102005.59;5028008;28;20266;-75
2023/01/28 07:48:23;;;;;;;4.07;2.53;;;;;;;-2.91;100.00;102003.06;5028930;28;20196;-75
2023/01/28 07:50:50;;;;;;;3.17;2.20;;;;;;;-2.89;100.00;102009.09;5023098;28;20209;-76
2023/01/28 07:53:17;;;;;;;6.47;2.10;;;;;;;-2.86;100.00;102008.41;5033337;28;20254;-75
2023/01/28 07:55:45;;;;;;;2.70;1.77;;;;;;;-2.84;100.00;102017.00;5004378;28;20303;-75
2023/01/28 07:58:12;;;;;;;2.03;1.77;;;;;;;-2.86;100.00;102019.47;5012333;28;20749;-75
2023/01/28 08:00:39;;;;;;;2.97;2.40;;;;;;;-2.81;100.00;102021.38;5032273;28;20197;-75
2023/01/28 08:03:07;;;;;;;5.40;2.10;;;;;;;-2.79;100.00;102019.81;5042447;28;20578;-75
2023/01/28 08:05:39;;;;;;;2.20;1.80;;;;;;;-2.77;100.00;102028.41;5031451;28;20227;-75
2023/01/28 08:08:06;;;;;;;2.43;2.03;;;;;;;-2.75;100.00;102025.13;5015189;28;20690;-75
2023/01/28 08:10:33;;;;;;;4.30;1.83;;;;;;;-2.70;100.00;102022.81;5033920;28;20206;-74
2023/01/28 08:13:00;;;;;;;1.80;1.70;;;;;;;-2.69;100.00;102022.91;5026494;28;20564;-75
2023/01/28 08:15:28;;;;;;;3.23;2.03;;;;;;;-2.67;100.00;102028.94;5032652;28;20223;-75
2023/01/28 08:17:55;;;;;;;4.30;3.27;;;;;;;-2.63;100.00;102034.22;5032311;28;20197;-75
2023/01/28 08:20:21;;;;;;;5.97;2.07;;;;;;;-2.63;100.00;102027.44;5028224;28;20196;-75
2023/01/28 08:22:48;;;;;;;5.07;2.30;;;;;;;-2.61;100.00;102019.84;5029562;28;20302;-75
2023/01/28 08:25:14;;;;;;;2.57;2.10;;;;;;;-2.57;100.00;102019.19;5031170;28;20224;-75
2023/01/28 08:27:40;;;;;;;4.23;3.20;;;;;;;-2.55;100.00;102020.13;5027719;28;20310;-75
2023/01/28 08:30:10;;;;;;;3.33;2.20;;;;;;;-2.55;100.00;102022.69;5007454;28;20200;-74
2023/01/28 08:32:37;;;;;;;5.30;2.03;;;;;;;-2.51;100.00;102022.94;5010550;28;20200;-75
2023/01/28 08:35:06;;;;;;;4.10;2.90;;;;;;;-2.49;100.00;102029.00;5030110;28;20663;-75
2023/01/28 08:37:32;;;;;;;4.73;2.23;;;;;;;-2.44;100.00;102024.13;5010579;28;20199;-75
2023/01/28 08:39:59;;;;;;;3.73;2.30;;;;;;;-2.41;100.00;102031.03;5027315;28;20568;-76
2023/01/28 08:42:26;;;;;;;6.00;4.43;;;;;;;-2.44;100.00;102036.91;5029350;28;20283;-75
2023/01/28 08:44:52;;;;;;;13.60;8.57;;;;;;;-2.41;100.00;102033.59;5028000;28;20223;-75
2023/01/28 08:47:20;;;;;;;11.73;7.27;;;;;;;-2.42;100.00;102040.38;5028743;28;20193;-75
2023/01/28 08:49:46;;;;;;;12.33;6.50;;;;;;;-2.39;100.00;102040.56;5024430;28;20591;-75
2023/01/28 08:52:13;;;;;;;10.67;6.77;;;;;;;-2.36;100.00;102045.78;5039811;28;20291;-75
2023/01/28 08:54:39;;;;;;;13.23;8.23;;;;;;;-2.38;100.00;102041.41;5028934;28;20211;-76
2023/01/28 08:57:06;;;;;;;11.00;6.33;;;;;;;-2.36;100.00;102047.47;5028274;28;20680;-75
2023/01/28 08:59:32;;;;;;;8.20;5.07;;;;;;;-2.29;100.00;102044.41;5030314;28;20203;-76
2023/01/28 09:01:58;;;;;;;4.90;3.80;;;;;;;-2.26;100.00;102043.72;5018883;28;20690;-76
2023/01/28 09:04:26;;;;;;;8.57;4.80;;;;;;;-2.25;100.00;102048.00;5032399;28;20275;-75
2023/01/28 09:06:54;;;;;;;9.53;4.63;;;;;;;-2.19;100.00;102048.31;5040135;28;20199;-77
2023/01/28 09:09:20;;;;;;;10.20;6.23;;;;;;;-2.14;100.00;102040.06;5024643;28;20192;-74
2023/01/28 09:11:47;;;;;;;7.23;4.73;;;;;;;-2.10;100.00;102048.75;5026319;28;20200;-75
2023/01/28 09:14:13;;;;;;;4.93;2.63;;;;;;;-2.13;100.00;102052.06;5022717;28;20230;-76
2023/01/28 09:16:39;;;;;;;6.77;3.57;;;;;;;-2.15;100.00;102056.19;5027209;28;20192;-75
2023/01/28 09:19:06;;;;;;;7.40;3.90;;;;;;;-2.12;100.00;102056.34;5024408;28;20428;-75
2023/01/28 09:21:33;;;;;;;3.57;2.47;;;;;;;-2.13;100.00;102043.47;5026345;28;20200;-75
2023/01/28 09:24:00;;;;;;;6.57;3.30;;;;;;;-2.11;100.00;102057.22;5029154;28;20600;-75
2023/01/28 09:26:28;;;;;;;7.37;4.00;;;;;;;-2.06;100.00;102063.44;5038499;28;20255;-76
2023/01/28 09:28:54;;;;;;;5.50;3.30;;;;;;;-2.03;100.00;102063.56;5007028;28;20560;-75
2023/01/28 09:31:22;;;;;;;4.10;2.73;;;;;;;-2.04;100.00;102066.06;5026529;28;20212;-75
2023/01/28 09:33:55;;;;;;;2.90;2.50;;;;;;;-1.99;100.00;102062.91;5008824;28;20213;-75
2023/01/28 09:36:21;;;;;;;3.57;2.87;;;;;;;-1.97;100.00;102063.00;5012645;28;20581;-75
2023/01/28 09:38:49;;;;;;;9.13;4.97;;;;;;;-1.98;100.00;102064.69;5025319;28;20241;-75
2023/01/28 09:41:26;;;;;;;8.73;5.17;;;;;;;-1.95;100.00;102066.53;5022678;28;20200;-75
2023/01/28 09:44:14;;;;;;;7.87;3.90;;;;;;;-1.94;100.00;102068.25;5026200;28;20657;-77
2023/01/28 09:46:44;;;;;;;7.67;5.47;;;;;;;-1.96;100.00;102075.84;5026409;28;20205;-75
2023/01/28 09:49:20;;;;;;;7.90;4.17;;;;;;;-1.94;100.00;102079.34;5021027;28;20616;-77
2023/01/28 09:51:52;;;;;;;4.73;3.07;;;;;;;-1.95;100.00;102081.88;5027353;28;20206;-75
2023/01/28 09:54:43;;;;;;;4.90;2.83;;;;;;;-1.88;100.00;102083.91;5025894;28;20274;-75
2023/01/28 09:57:16;;;;;;;7.37;2.60;;;;;;;-1.84;100.00;102080.69;5005285;28;20222;-75
2023/01/28 09:59:43;;;;;;;11.47;6.03;;;;;;;-1.86;100.00;102087.41;5028912;28;20522;-75
2023/01/28 10:02:26;;;;;;;16.77;6.27;;;;;;;-1.78;100.00;102085.22;5002616;28;20203;-75
2023/01/28 10:04:59;;;;;;;7.93;4.40;;;;;;;-1.78;100.00;102083.50;5025223;28;20303;-75
2023/01/28 10:07:38;;;;;;;7.93;4.70;;;;;;;-1.77;100.00;102086.97;5021739;28;20736;-74
2023/01/28 10:10:13;;;;;;;6.27;4.23;;;;;;;-1.79;100.00;102092.00;5026968;28;20658;-75
2023/01/28 10:12:49;;;;;;;7.73;4.13;;;;;;;-1.76;100.00;102091.25;5006923;28;20207;-74
2023/01/28 10:15:38;;;;;;;5.23;3.60;;;;;;;-1.74;100.00;102097.34;5027945;28;20214;-77
2023/01/28 10:18:09;;;;;;;5.00;3.07;;;;;;;-1.72;100.00;102099.16;5010687;28;20308;-74
2023/01/28 10:20:43;;;;;;;4.07;2.90;;;;;;;-1.67;100.00;102086.63;5030392;28;20188;-74
2023/01/28 10:23:17;;;;;;;4.50;2.17;;;;;;;-1.69;100.00;102090.75;5019539;28;20203;-74
2023/01/28 10:25:47;;;;;;;5.73;3.80;;;;;;;-1.66;100.00;102090.91;5020196;28;20311;-75
2023/01/28 10:28:20;;;;;;;5.67;3.70;;;;;;;-1.63;100.00;102093.63;5006236;28;20207;-75
2023/01/28 10:30:49;;;;;;;3.67;2.90;;;;;;;-1.64;100.00;102093.53;5022809;28;20605;-74
2023/01/28 10:33:21;;;;;;;5.57;2.60;;;;;;;-1.69;100.00;102100.97;5027444;28;20299;-74
2023/01/28 10:35:47;;;;;;;5.20;3.00;;;;;;;-1.64;100.00;102106.31;5024390;28;20228;-75
2023/01/28 10:38:16;;;;;;;4.90;2.93;;;;;;;-1.67;100.00;102104.50;5030078;28;20266;-76
2023/01/28 10:40:46;;;;;;;2.50;2.13;;;;;;;-1.62;100.00;102097.03;5033676;28;20584;-75
2023/01/28 10:43:15;;;;;;;6.30;2.47;;;;;;;-1.61;100.00;102094.56;5025344;28;20200;-76
2023/01/28 10:45:52;;;;;;;7.17;2.97;;;;;;;-1.61;100.00;102097.13;5023560;28;20235;-74
2023/01/28 10:48:23;;;;;;;4.37;2.63;;;;;;;-1.58;100.00;102089.59;5029160;28;20664;-75
2023/01/28 10:50:52;;;;;;;3.10;2.60;;;;;;;-1.57;100.00;102087.91;5024884;28;20688;-76
2023/01/28 10:53:18;;;;;;;4.30;3.00;;;;;;;-1.57;100.00;102091.34;5028892;28;20234;-75
2023/01/28 10:55:51;;;;;;;5.47;2.47;;;;;;;-1.56;100.00;102095.66;5023644;28;20219;-76
2023/01/28 10:58:21;;;;;;;4.40;2.20;;;;;;;-1.50;100.00;102096.75;5025787;28;20203;-74
2023/01/28 11:00:53;;;;;;;3.80;2.37;;;;;;;-1.50;100.00;102089.94;5008884;28;20200;-75
2023/01/28 11:03:20;;;;;;;6.10;3.70;;;;;;;-1.46;100.00;102089.28;5009853;28;20208;-74
2023/01/28 11:05:51;;;;;;;6.67;3.33;;;;;;;-1.42;100.00;102083.50;5027310;28;20367;-74
2023/01/28 11:08:18;;;;;;;4.20;2.87;;;;;;;-1.44;100.00;102080.00;5027446;28;20572;-74
2023/01/28 11:10:46;;;;;;;8.67;4.60;;;;;;;-1.39;100.00;102075.06;5023558;28;20191;-74
2023/01/28 11:13:18;;;;;;;6.50;3.37;;;;;;;-1.44;100.00;102084.22;5026532;28;20287;-74
2023/01/28 11:15:49;;;;;;;5.20;2.73;;;;;;;-1.44;100.00;102081.66;5024247;28;20231;-77
2023/01/28 11:18:20;;;;;;;4.83;2.43;;;;;;;-1.45;100.00;102085.91;5023185;28;20201;-74
2023/01/28 11:20:52;;;;;;;5.40;2.20;;;;;;;-1.41;100.00;102085.25;5021656;28;20267;-74
2023/01/28 11:23:23;;;;;;;6.03;2.33;;;;;;;-1.37;100.00;102087.16;5030174;28;20196;-74
2023/01/28 11:26:00;;;;;;;5.60;3.43;;;;;;;-1.30;100.00;102083.19;5025340;28;20220;-74
2023/01/28 11:28:30;;;;;;;7.30;4.10;;;;;;;-1.31;100.00;102076.31;5007819;28;20251;-76
2023/01/28 11:31:00;;;;;;;3.33;2.80;;;;;;;-1.29;100.00;102071.28;5023536;28;20223;-75
2023/01/28 11:33:32;;;;;;;6.67;2.77;;;;;;;-1.33;100.00;102078.81;5018791;28;20235;-74
2023/01/28 11:36:06;;;;;;;6.03;2.97;;;;;;;-1.29;100.00;102072.13;5032982;28;20216;-75
2023/01/28 11:38:33;;;;;;;4.83;2.63;;;;;;;-1.25;100.00;102070.59;5026402;28;20206;-74
2023/01/28 11:41:00;;;;;;;5.20;4.10;;;;;;;-1.23;100.00;102072.44;5012958;28;20216;-74
2023/01/28 11:43:30;;;;;;;6.30;2.60;;;;;;;-1.21;100.00;102073.38;5026188;28;20261;-75
2023/01/28 11:46:07;;;;;;;6.43;3.07;;;;;;;-1.16;100.00;102065.91;5035133;28;20215;-75
2023/01/28 11:48:44;;;;;;;4.93;2.60;;;;;;;-1.16;100.00;102066.78;5029198;28;20203;-74
2023/01/28 11:51:28;;;;;;;2.87;2.20;;;;;;;-1.09;100.00;102067.03;5025073;28;20194;-74
2023/01/28 11:54:07;;;;;;;6.37;3.60;;;;;;;-1.06;100.00;102062.94;5032212;28;20234;-74
2023/01/28 11:56:46;;;;;;;11.20;4.37;;;;;;;-1.00;100.00;102059.78;5027640;28;20204;-75
2023/01/28 11:59:44;;;;;;;13.93;6.40;;;;;;;-0.96;100.00;102059.09;5009645;28;20468;-74
2023/01/28 12:02:28;;;;;;;5.63;2.67;;;;;;;-0.91;100.00;102056.75;5007400;28;20216;-75
2023/01/28 12:05:14;;;;;;;4.10;2.53;;;;;;;-0.84;100.00;102043.41;5041803;23;20307;-71
2023/01/28 12:07:47;;;;;;;5.07;3.30;;;;;;;-0.84;100.00;102044.28;5019067;28;20231;-70